Time;durP1;ratioP1;P1;durP2;ratioP2;P2;SDS_P1;SDS_P2;PMS_P1;PMS_P2;Temp;Humidity;BMP_temperature;BMP_pressure;BME280_temperature;BME280_humidity;BME280_pressure;Samples;Min_cycle;Max_cycle;Signal;HPM_P1;HPM_P2
2021/08/24 00:01:17;;;;;;;6.03;5.53;;;16.90;94.70;;;;;;5038992;28;20496;-77
2021/08/24 00:03:44;;;;;;;8.25;6.32;;;16.90;95.80;;;;;;5038398;28;20921;-77
2021/08/24 00:06:11;;;;;;;7.30;6.33;;;16.80;96.20;;;;;;5040132;28;20271;-77
2021/08/24 00:08:40;;;;;;;8.07;5.80;;;16.80;97.00;;;;;;5040840;28;20956;-77
2021/08/24 00:11:08;;;;;;;6.72;6.10;;;16.70;97.50;;;;;;5044221;28;20208;-78
2021/08/24 00:13:36;;;;;;;6.80;6.20;;;16.70;97.70;;;;;;5039620;28;20318;-77
2021/08/24 00:16:04;;;;;;;6.10;5.60;;;16.60;98.20;;;;;;5039895;28;20522;-78
2021/08/24 00:19:21;;;;;;;8.43;5.63;;;16.60;98.50;;;;;;5044627;28;20211;-78
2021/08/24 00:21:48;;;;;;;6.93;6.23;;;16.60;98.60;;;;;;5042795;28;20221;-78
2021/08/24 00:24:15;;;;;;;6.28;5.78;;;16.60;99.00;;;;;;5038857;28;20484;-78
2021/08/24 00:26:42;;;;;;;6.80;6.20;;;16.60;99.40;;;;;;5039101;28;20212;-78
2021/08/24 00:29:10;;;;;;;6.20;5.72;;;16.50;99.40;;;;;;5038196;28;20544;-77
2021/08/24 00:31:38;;;;;;;7.65;6.35;;;16.50;99.90;;;;;;5037857;28;20211;-77
2021/08/24 00:34:05;;;;;;;8.80;6.63;;;16.50;99.90;;;;;;5037717;28;20223;-79
2021/08/24 00:36:32;;;;;;;7.20;6.60;;;16.50;99.90;;;;;;5038472;28;20480;-77
2021/08/24 00:39:00;;;;;;;7.53;6.90;;;16.50;99.90;;;;;;5038653;28;20294;-78
2021/08/24 00:41:28;;;;;;;6.57;5.97;;;16.50;99.90;;;;;;5039863;28;20223;-78
2021/08/24 00:43:56;;;;;;;7.55;6.65;;;16.50;99.90;;;;;;5051474;28;20225;-78
2021/08/24 00:46:30;;;;;;;7.35;6.75;;;16.50;99.70;;;;;;5056580;28;20211;-77
2021/08/24 00:49:01;;;;;;;9.97;7.17;;;16.50;99.80;;;;;;5043870;28;20231;-78
2021/08/24 00:51:29;;;;;;;7.43;6.72;;;16.40;99.90;;;;;;5058323;28;20465;-79
2021/08/24 00:53:57;;;;;;;11.07;6.68;;;16.40;99.90;;;;;;5055704;28;20238;-78
2021/08/24 00:56:25;;;;;;;8.75;7.00;;;16.40;99.90;;;;;;5045821;28;20238;-78
2021/08/24 00:58:52;;;;;;;7.90;7.07;;;16.30;99.90;;;;;;5042696;28;20295;-77
2021/08/24 01:01:19;;;;;;;7.77;7.00;;;16.30;99.90;;;;;;5036394;28;20298;-77
2021/08/24 01:03:49;;;;;;;7.43;6.70;;;16.20;99.90;;;;;;5036256;28;20580;-78
2021/08/24 01:06:34;;;;;;;14.82;6.82;;;16.20;99.90;;;;;;5036140;28;20203;-78
2021/08/24 01:09:14;;;;;;;8.50;7.70;;;16.20;99.90;;;;;;5036042;28;20210;-78
2021/08/24 01:11:49;;;;;;;8.20;7.47;;;16.10;99.90;;;;;;5035573;28;20282;-77
2021/08/24 01:14:24;;;;;;;7.78;6.45;;;16.10;99.90;;;;;;5034715;28;20718;-77
2021/08/24 01:17:00;;;;;;;7.10;6.50;;;16.10;99.90;;;;;;5036001;28;20191;-77
2021/08/24 01:20:03;;;;;;;7.93;7.13;;;16.10;99.90;;;;;;5034998;28;20589;-76
2021/08/24 01:23:15;;;;;;;7.70;7.00;;;16.00;99.90;;;;;;5031501;28;20321;-77
2021/08/24 01:25:49;;;;;;;7.32;6.60;;;15.90;99.90;;;;;;5025832;28;20230;-78
2021/08/24 01:28:25;;;;;;;8.07;7.28;;;15.90;99.90;;;;;;5034414;28;20654;-78
2021/08/24 01:31:24;;;;;;;7.90;7.10;;;15.80;99.90;;;;;;5036255;28;20304;-78
2021/08/24 01:34:02;;;;;;;9.23;7.30;;;15.80;99.90;;;;;;5035890;28;20231;-78
2021/08/24 01:36:34;;;;;;;7.43;6.82;;;15.70;99.90;;;;;;5035341;28;20271;-78
2021/08/24 01:39:08;;;;;;;11.40;7.70;;;15.70;99.90;;;;;;5034157;28;20207;-78
2021/08/24 01:41:54;;;;;;;7.93;7.22;;;15.60;99.90;;;;;;5034920;28;20203;-78
2021/08/24 01:44:23;;;;;;;8.35;7.55;;;15.60;99.90;;;;;;5034041;28;20242;-78
2021/08/24 01:46:58;;;;;;;7.20;6.60;;;15.50;99.90;;;;;;5034400;28;20211;-78
2021/08/24 01:49:31;;;;;;;8.90;6.45;;;15.50;99.90;;;;;;5036893;28;20284;-78
2021/08/24 01:52:07;;;;;;;8.25;7.40;;;15.50;99.90;;;;;;5036578;28;20251;-79
2021/08/24 01:54:39;;;;;;;8.20;7.50;;;15.40;99.90;;;;;;5034338;28;20702;-78
2021/08/24 01:57:12;;;;;;;8.20;7.40;;;15.40;99.90;;;;;;5034033;28;20224;-78
2021/08/24 01:59:46;;;;;;;9.40;7.03;;;15.30;99.90;;;;;;5033905;28;20246;-77
2021/08/24 02:02:17;;;;;;;7.30;6.53;;;15.30;99.90;;;;;;5033711;28;20223;-77
2021/08/24 02:04:50;;;;;;;7.85;6.85;;;15.20;99.90;;;;;;5034066;28;20643;-77
2021/08/24 02:07:21;;;;;;;8.10;7.30;;;15.20;99.90;;;;;;5033815;28;20696;-77
2021/08/24 02:09:51;;;;;;;8.05;7.30;;;15.20;99.90;;;;;;5039366;28;20201;-78
2021/08/24 02:12:22;;;;;;;7.90;7.20;;;15.10;99.90;;;;;;5057117;28;20238;-79
2021/08/24 02:14:49;;;;;;;8.30;7.60;;;15.10;99.90;;;;;;5049963;28;20257;-77
2021/08/24 02:17:20;;;;;;;7.55;6.85;;;15.10;99.90;;;;;;5037505;28;20283;-77
2021/08/24 02:19:53;;;;;;;9.27;8.38;;;15.00;99.90;;;;;;5035380;28;20304;-77
2021/08/24 02:22:27;;;;;;;7.30;6.70;;;15.00;99.90;;;;;;5033598;28;20324;-77
2021/08/24 02:24:59;;;;;;;8.23;7.43;;;15.00;99.90;;;;;;5034734;28;20256;-78
2021/08/24 02:27:30;;;;;;;10.60;8.05;;;14.90;99.90;;;;;;5043994;28;20207;-79
2021/08/24 02:29:57;;;;;;;8.82;8.00;;;14.90;99.90;;;;;;5036494;28;20310;-77
2021/08/24 02:32:26;;;;;;;7.82;7.10;;;14.90;99.90;;;;;;5033698;28;20636;-77
2021/08/24 02:34:58;;;;;;;10.52;7.63;;;14.90;99.90;;;;;;5035492;28;20253;-77
2021/08/24 02:37:30;;;;;;;9.48;8.57;;;14.80;99.90;;;;;;5039509;28;20233;-78
2021/08/24 02:40:04;;;;;;;7.97;7.05;;;14.80;99.90;;;;;;5037529;28;20279;-78
2021/08/24 02:42:38;;;;;;;8.57;7.75;;;14.80;99.90;;;;;;5037512;28;20240;-77
2021/08/24 02:45:10;;;;;;;9.05;7.43;;;14.80;99.90;;;;;;5037789;28;20216;-78
2021/08/24 02:47:39;;;;;;;8.43;7.63;;;14.70;99.90;;;;;;5037611;28;20237;-77
2021/08/24 02:50:08;;;;;;;8.10;7.40;;;14.70;99.90;;;;;;5036928;28;20741;-78
2021/08/24 02:52:38;;;;;;;8.80;8.00;;;14.70;99.90;;;;;;5038282;28;20229;-77
2021/08/24 02:55:07;;;;;;;8.48;7.68;;;14.70;99.90;;;;;;5044747;28;20324;-77
2021/08/24 02:57:34;;;;;;;9.00;8.18;;;14.60;99.90;;;;;;5037654;28;20229;-77
2021/08/24 03:00:01;;;;;;;9.13;8.32;;;14.60;99.90;;;;;;5038305;28;20218;-78
2021/08/24 03:02:27;;;;;;;9.68;8.77;;;14.60;99.90;;;;;;5036642;28;20274;-77
2021/08/24 03:04:55;;;;;;;13.75;8.75;;;14.50;99.90;;;;;;5036341;28;20207;-77
2021/08/24 03:07:27;;;;;;;9.25;8.00;;;14.50;99.90;;;;;;5036187;28;20216;-77
2021/08/24 03:09:57;;;;;;;8.90;7.75;;;14.40;99.90;;;;;;5037412;28;20273;-78
2021/08/24 03:12:33;;;;;;;8.43;7.40;;;14.40;99.90;;;;;;5036577;28;20235;-78
2021/08/24 03:15:06;;;;;;;9.95;8.95;;;14.40;99.90;;;;;;5035906;28;20313;-78
2021/08/24 03:17:41;;;;;;;8.80;8.10;;;14.30;99.90;;;;;;5035543;28;20210;-77
2021/08/24 03:20:11;;;;;;;8.90;7.85;;;14.30;99.90;;;;;;5035492;28;20210;-78
2021/08/24 03:22:39;;;;;;;9.05;7.78;;;14.20;99.90;;;;;;5035575;28;20240;-77
2021/08/24 03:25:10;;;;;;;11.57;9.40;;;14.20;99.90;;;;;;5035629;28;20304;-78
2021/08/24 03:27:41;;;;;;;8.25;7.45;;;14.10;99.90;;;;;;5035560;28;20655;-78
2021/08/24 03:30:11;;;;;;;10.10;9.10;;;14.10;99.90;;;;;;5035543;28;20229;-77
2021/08/24 03:32:37;;;;;;;8.90;8.00;;;14.10;99.90;;;;;;5035625;28;20303;-78
2021/08/24 03:35:06;;;;;;;9.50;8.48;;;14.10;99.90;;;;;;5035603;28;20633;-78
2021/08/24 03:37:33;;;;;;;10.32;9.40;;;14.10;99.90;;;;;;5036012;28;20675;-78
2021/08/24 03:39:59;;;;;;;10.63;9.30;;;14.10;99.90;;;;;;5036600;28;20238;-78
2021/08/24 03:42:28;;;;;;;11.32;10.23;;;14.10;99.90;;;;;;5035657;28;20245;-78
2021/08/24 03:44:54;;;;;;;10.05;9.15;;;14.00;99.90;;;;;;5035476;28;20202;-78
2021/08/24 03:47:21;;;;;;;11.85;9.68;;;14.00;99.90;;;;;;5034739;28;20304;-78
2021/08/24 03:49:48;;;;;;;10.18;9.18;;;14.00;99.90;;;;;;5035401;28;20646;-78
2021/08/24 03:52:15;;;;;;;9.88;8.88;;;14.00;99.90;;;;;;5036998;28;20258;-78
2021/08/24 03:54:42;;;;;;;9.50;8.60;;;13.90;99.90;;;;;;5059885;28;20233;-78
2021/08/24 03:57:09;;;;;;;10.00;9.00;;;13.90;99.90;;;;;;5047700;28;20707;-78
2021/08/24 03:59:37;;;;;;;10.15;9.02;;;13.90;99.90;;;;;;5048448;28;20220;-79
2021/08/24 04:02:05;;;;;;;8.57;7.80;;;13.90;99.90;;;;;;5081642;22;20256;-80
2021/08/24 04:04:32;;;;;;;9.70;8.70;;;13.80;99.90;;;;;;5050030;28;20322;-79
2021/08/24 04:06:59;;;;;;;10.52;9.20;;;13.80;99.90;;;;;;5044117;28;20214;-79
2021/08/24 04:09:26;;;;;;;10.80;9.00;;;13.80;99.90;;;;;;5044692;28;20210;-78
2021/08/24 04:11:53;;;;;;;9.38;8.48;;;13.70;99.90;;;;;;5039895;28;20589;-79
2021/08/24 04:14:20;;;;;;;10.05;8.93;;;13.70;99.90;;;;;;5036085;28;20317;-79
2021/08/24 04:16:49;;;;;;;9.93;8.93;;;13.70;99.90;;;;;;5036308;28;20220;-78
2021/08/24 04:19:16;;;;;;;10.77;8.95;;;13.70;99.90;;;;;;5036138;28;20210;-78
2021/08/24 04:21:43;;;;;;;10.65;9.65;;;13.70;99.90;;;;;;5037303;28;20205;-79
2021/08/24 04:24:11;;;;;;;10.93;9.02;;;13.70;99.90;;;;;;5038999;28;20655;-79
2021/08/24 04:26:39;;;;;;;12.93;8.77;;;13.70;99.90;;;;;;5038191;28;20206;-78
2021/08/24 04:29:06;;;;;;;10.98;8.98;;;13.70;99.90;;;;;;5038445;28;20201;-78
2021/08/24 04:31:36;;;;;;;14.35;10.80;;;13.60;99.90;;;;;;5037657;28;20304;-79
2021/08/24 04:34:05;;;;;;;10.85;9.55;;;13.60;99.90;;;;;;5037814;28;20602;-78
2021/08/24 04:36:32;;;;;;;9.77;8.88;;;13.60;99.90;;;;;;5035490;28;20240;-78
2021/08/24 04:38:59;;;;;;;10.90;9.80;;;13.60;99.90;;;;;;5035217;28;20301;-78
2021/08/24 04:41:27;;;;;;;12.75;9.05;;;13.60;99.90;;;;;;5035148;28;20240;-78
2021/08/24 04:43:54;;;;;;;11.00;9.95;;;13.60;99.90;;;;;;5035888;28;20230;-79
2021/08/24 04:46:21;;;;;;;10.40;9.48;;;13.50;99.90;;;;;;5035754;28;20296;-77
2021/08/24 04:48:47;;;;;;;10.00;9.05;;;13.50;99.90;;;;;;5034576;28;20625;-78
2021/08/24 04:51:16;;;;;;;14.07;10.10;;;13.50;99.90;;;;;;5037839;28;20580;-79
2021/08/24 04:53:43;;;;;;;11.07;9.32;;;13.50;99.90;;;;;;5038378;28;20234;-79
2021/08/24 04:56:10;;;;;;;10.50;9.50;;;13.50;99.90;;;;;;5037821;28;20288;-79
2021/08/24 04:58:37;;;;;;;11.32;10.23;;;13.50;99.90;;;;;;5037673;28;20228;-79
2021/08/24 05:01:04;;;;;;;11.48;10.00;;;13.50;99.90;;;;;;5038252;28;20214;-80
2021/08/24 05:03:32;;;;;;;11.80;9.70;;;13.70;99.90;;;;;;5039750;28;20269;-80
2021/08/24 05:05:58;;;;;;;10.95;10.05;;;13.80;99.90;;;;;;5045033;28;20403;-80
2021/08/24 05:08:27;;;;;;;9.57;8.68;;;14.10;99.90;;;;;;5051433;28;20225;-80
2021/08/24 05:10:54;;;;;;;7.80;6.82;;;14.10;99.90;;;;;;5044450;28;20316;-79
2021/08/24 05:13:21;;;;;;;8.60;7.70;;;14.30;99.90;;;;;;5037932;28;20242;-79
2021/08/24 05:15:48;;;;;;;6.35;5.85;;;14.40;99.90;;;;;;5038079;28;20240;-79
2021/08/24 05:18:15;;;;;;;10.45;7.15;;;14.60;99.90;;;;;;5040319;28;20211;-79
2021/08/24 05:20:42;;;;;;;6.60;5.97;;;14.80;99.90;;;;;;5040248;28;20210;-79
2021/08/24 05:23:09;;;;;;;8.05;5.90;;;15.10;99.90;;;;;;5037785;28;20473;-79
2021/08/24 05:25:39;;;;;;;7.07;5.97;;;15.30;99.90;;;;;;5041317;28;20505;-79
2021/08/24 05:28:06;;;;;;;6.47;5.88;;;15.50;99.10;;;;;;5055250;28;20211;-78
2021/08/24 05:30:33;;;;;;;6.10;5.43;;;15.70;96.80;;;;;;5048235;28;20231;-79
2021/08/24 05:33:00;;;;;;;8.55;5.40;;;15.60;94.10;;;;;;5050432;28;20230;-79
2021/08/24 05:35:27;;;;;;;6.60;5.95;;;15.60;93.60;;;;;;5053766;28;20218;-78
2021/08/24 05:37:54;;;;;;;8.60;6.07;;;15.60;93.70;;;;;;5041908;28;20265;-78
2021/08/24 05:40:21;;;;;;;9.57;6.13;;;15.40;94.30;;;;;;5038378;28;20662;-80
2021/08/24 05:42:50;;;;;;;7.28;5.70;;;15.40;94.80;;;;;;5037652;28;20281;-79
2021/08/24 05:45:17;;;;;;;6.80;6.00;;;15.40;94.80;;;;;;5036332;28;20210;-78
2021/08/24 05:47:44;;;;;;;7.53;6.63;;;15.40;94.90;;;;;;5038341;28;20832;-78
2021/08/24 05:50:12;;;;;;;6.32;5.75;;;15.40;94.90;;;;;;5034889;28;20337;-77
2021/08/24 05:52:39;;;;;;;9.30;6.50;;;15.70;93.90;;;;;;5041183;28;20741;-79
2021/08/24 05:55:08;;;;;;;6.85;6.15;;;15.70;92.60;;;;;;5048720;28;20231;-79
2021/08/24 05:57:35;;;;;;;6.10;5.50;;;15.70;92.70;;;;;;5044135;28;20234;-79
2021/08/24 06:00:05;;;;;;;6.32;5.72;;;15.90;92.10;;;;;;5052655;28;20198;-79
2021/08/24 06:02:32;;;;;;;7.35;6.00;;;16.00;90.00;;;;;;5046847;28;20249;-78
2021/08/24 06:04:59;;;;;;;7.80;6.25;;;15.90;91.50;;;;;;5034475;28;20257;-79
2021/08/24 06:07:26;;;;;;;6.30;5.70;;;15.90;91.60;;;;;;5041536;28;20230;-79
2021/08/24 06:09:53;;;;;;;5.30;4.90;;;16.30;90.10;;;;;;5043930;28;20229;-79
2021/08/24 06:12:20;;;;;;;5.60;5.10;;;16.20;89.40;;;;;;5048795;28;20223;-79
2021/08/24 06:14:47;;;;;;;7.32;5.80;;;16.30;88.20;;;;;;5046798;28;20271;-79
2021/08/24 06:17:15;;;;;;;6.85;6.13;;;16.30;88.00;;;;;;5041656;28;20286;-78
2021/08/24 06:19:42;;;;;;;8.80;5.38;;;16.70;83.90;;;;;;5041371;28;20675;-78
2021/08/24 06:22:09;;;;;;;6.53;5.95;;;16.50;82.90;;;;;;5035797;28;20235;-78
2021/08/24 06:24:38;;;;;;;6.13;5.50;;;16.70;84.00;;;;;;5035802;28;20261;-79
2021/08/24 06:27:05;;;;;;;7.88;5.20;;;16.60;82.30;;;;;;5034637;28;20512;-80
2021/08/24 06:29:32;;;;;;;6.73;5.90;;;16.20;85.50;;;;;;5033441;28;20203;-78
2021/08/24 06:32:04;;;;;;;8.47;5.63;;;15.90;88.60;;;;;;5034416;28;20442;-78
2021/08/24 06:34:34;;;;;;;6.47;5.78;;;15.70;90.60;;;;;;5034172;28;20473;-78
2021/08/24 06:37:01;;;;;;;6.90;5.65;;;15.50;91.80;;;;;;5033993;28;20259;-78
2021/08/24 06:39:28;;;;;;;8.98;5.70;;;15.50;91.90;;;;;;5035473;28;20263;-78
2021/08/24 06:41:55;;;;;;;7.68;5.40;;;15.50;91.10;;;;;;5041040;28;20298;-79
2021/08/24 06:44:22;;;;;;;7.88;6.10;;;15.50;91.70;;;;;;5046304;28;20261;-78
2021/08/24 06:46:49;;;;;;;6.25;5.65;;;15.60;91.90;;;;;;5045139;28;20258;-77
2021/08/24 06:49:16;;;;;;;6.00;5.50;;;15.60;91.00;;;;;;5043199;28;20574;-76
2021/08/24 06:51:44;;;;;;;6.25;5.65;;;15.60;91.60;;;;;;5052331;28;20214;-78
2021/08/24 06:54:11;;;;;;;7.95;6.35;;;15.70;91.80;;;;;;5048123;28;20234;-78
2021/08/24 06:56:38;;;;;;;7.10;6.30;;;15.70;91.20;;;;;;5040113;28;20223;-78
2021/08/24 06:59:05;;;;;;;6.32;5.72;;;15.80;90.00;;;;;;5038277;28;20230;-79
2021/08/24 07:01:35;;;;;;;9.60;6.40;;;15.70;90.30;;;;;;5037794;28;20223;-79
2021/08/24 07:04:03;;;;;;;6.30;5.60;;;15.80;90.00;;;;;;5035938;28;20242;-78
2021/08/24 07:06:30;;;;;;;6.53;5.80;;;15.90;88.40;;;;;;5034976;28;20655;-79
2021/08/24 07:08:58;;;;;;;6.15;5.55;;;16.00;87.80;;;;;;5036581;28;20487;-79
2021/08/24 07:11:27;;;;;;;5.87;5.23;;;16.20;86.20;;;;;;5034069;28;20234;-78
2021/08/24 07:13:55;;;;;;;11.57;5.07;;;16.30;83.80;;;;;;5035188;28;20523;-78
2021/08/24 07:16:23;;;;;;;5.60;5.00;;;16.40;80.30;;;;;;5045556;28;20485;-77
2021/08/24 07:18:52;;;;;;;5.70;5.07;;;16.20;80.10;;;;;;5050167;28;20204;-77
2021/08/24 07:21:20;;;;;;;4.85;4.43;;;16.40;81.10;;;;;;5047751;28;20446;-78
2021/08/24 07:23:47;;;;;;;5.30;4.80;;;16.60;79.30;;;;;;5038980;28;20235;-78
2021/08/24 07:26:17;;;;;;;3.90;3.60;;;16.60;78.30;;;;;;5041692;28;20447;-78
2021/08/24 07:28:44;;;;;;;3.50;3.27;;;16.80;76.00;;;;;;5040526;28;20483;-78
2021/08/24 07:31:11;;;;;;;3.83;3.53;;;16.70;72.30;;;;;;5046130;28;20457;-78
2021/08/24 07:33:38;;;;;;;5.37;3.47;;;16.90;73.90;;;;;;5044795;28;20561;-79
2021/08/24 07:36:05;;;;;;;3.77;3.23;;;16.90;70.20;;;;;;5042681;28;21032;-79
2021/08/24 07:38:32;;;;;;;5.17;2.97;;;16.90;71.70;;;;;;5044830;28;20463;-79
2021/08/24 07:40:59;;;;;;;3.07;2.43;;;17.00;64.50;;;;;;5044579;28;20828;-79
2021/08/24 07:43:28;;;;;;;5.90;2.57;;;17.10;64.40;;;;;;5044493;28;20478;-78
2021/08/24 07:45:55;;;;;;;4.57;2.93;;;17.30;60.70;;;;;;5050178;28;20466;-79
2021/08/24 07:48:24;;;;;;;2.60;2.40;;;17.10;61.20;;;;;;5048970;28;20456;-80
2021/08/24 07:50:51;;;;;;;2.90;2.40;;;17.10;62.00;;;;;;5050436;28;20467;-80
2021/08/24 07:53:19;;;;;;;4.43;2.90;;;17.10;60.60;;;;;;5049989;28;20999;-80
2021/08/24 07:55:46;;;;;;;3.07;2.37;;;17.00;60.90;;;;;;5042863;28;20848;-79
2021/08/24 07:58:13;;;;;;;3.00;2.63;;;17.10;60.90;;;;;;5042774;28;20477;-79
2021/08/24 08:00:41;;;;;;;2.40;2.20;;;17.30;58.50;;;;;;5037525;28;20798;-79
2021/08/24 08:03:08;;;;;;;2.50;2.30;;;17.20;56.00;;;;;;5038688;28;20577;-78
2021/08/24 08:05:35;;;;;;;2.90;2.20;;;17.10;58.20;;;;;;5037371;28;20454;-78
2021/08/24 08:08:04;;;;;;;2.83;2.43;;;17.20;57.90;;;;;;5050816;28;20430;-79
2021/08/24 08:10:31;;;;;;;5.30;2.40;;;17.00;56.90;;;;;;5050591;28;20995;-76
2021/08/24 08:12:58;;;;;;;3.27;2.77;;;16.90;59.50;;;;;;5053212;28;20516;-79
2021/08/24 08:15:26;;;;;;;3.23;2.80;;;17.10;59.30;;;;;;5052898;28;20522;-79
2021/08/24 08:17:54;;;;;;;3.33;2.40;;;17.20;58.40;;;;;;5051099;28;20465;-78
2021/08/24 08:20:21;;;;;;;3.20;2.90;;;17.20;58.40;;;;;;5054691;28;20462;-78
2021/08/24 08:22:49;;;;;;;2.70;2.50;;;17.40;58.10;;;;;;5038487;28;20569;-78
2021/08/24 08:25:17;;;;;;;3.00;2.63;;;17.50;58.80;;;;;;5048483;28;20563;-78
2021/08/24 08:27:44;;;;;;;2.80;2.47;;;17.60;58.80;;;;;;5045808;28;20510;-78
2021/08/24 08:30:12;;;;;;;4.47;3.17;;;17.50;58.90;;;;;;5042861;28;20494;-77
2021/08/24 08:32:43;;;;;;;3.90;2.90;;;17.60;58.30;;;;;;5049695;28;20482;-78
2021/08/24 08:35:13;;;;;;;4.73;2.47;;;17.50;61.10;;;;;;5043455;28;21015;-77
2021/08/24 08:37:41;;;;;;;2.50;2.20;;;17.80;60.50;;;;;;5039422;28;20917;-78
2021/08/24 08:40:11;;;;;;;5.83;2.50;;;17.70;59.70;;;;;;5042931;28;20467;-77
2021/08/24 08:42:56;;;;;;;3.30;2.50;;;17.80;60.80;;;;;;5051361;28;20522;-78
2021/08/24 08:45:32;;;;;;;4.37;2.90;;;18.00;59.30;;;;;;5037262;28;20544;-78
2021/08/24 08:48:08;;;;;;;2.77;2.53;;;18.00;58.90;;;;;;5036005;28;20632;-78
2021/08/24 08:50:43;;;;;;;3.30;2.70;;;18.40;58.80;;;;;;5036450;28;20489;-79
2021/08/24 08:53:18;;;;;;;3.20;2.70;;;18.50;57.20;;;;;;5038761;28;20845;-79
2021/08/24 08:55:50;;;;;;;3.60;2.90;;;18.30;57.00;;;;;;5040195;28;20487;-79
2021/08/24 08:58:31;;;;;;;2.80;2.60;;;18.40;57.10;;;;;;5040601;28;20889;-78
2021/08/24 09:01:04;;;;;;;3.93;2.60;;;18.40;57.10;;;;;;5041209;28;20483;-78
2021/08/24 09:03:46;;;;;;;4.33;2.70;;;18.30;57.70;;;;;;5041810;28;20507;-78
2021/08/24 09:06:16;;;;;;;2.73;2.53;;;18.50;57.20;;;;;;5050123;28;20478;-78
2021/08/24 09:08:43;;;;;;;3.73;2.50;;;18.70;56.10;;;;;;5044563;28;20494;-79
2021/08/24 09:11:10;;;;;;;3.43;2.67;;;18.80;57.50;;;;;;5045046;28;20486;-79
2021/08/24 09:13:45;;;;;;;3.17;2.50;;;18.70;57.40;;;;;;5045878;28;20458;-79
2021/08/24 09:16:22;;;;;;;3.17;2.93;;;18.70;56.60;;;;;;5044235;28;20484;-78
2021/08/24 09:18:53;;;;;;;1.90;1.80;;;18.80;56.40;;;;;;5048482;28;20472;-78
2021/08/24 09:21:24;;;;;;;3.33;3.03;;;18.90;55.80;;;;;;5050466;28;20484;-78
2021/08/24 09:23:53;;;;;;;2.67;2.47;;;19.10;53.50;;;;;;5051013;28;20537;-78
2021/08/24 09:26:38;;;;;;;2.40;2.20;;;18.90;52.90;;;;;;5049934;28;20442;-78
2021/08/24 09:29:05;;;;;;;3.57;2.13;;;18.60;54.90;;;;;;5053409;28;20433;-77
2021/08/24 09:31:35;;;;;;;4.87;2.47;;;18.70;54.10;;;;;;5057668;28;20464;-77
2021/08/24 09:34:03;;;;;;;2.20;2.00;;;18.40;55.50;;;;;;5057578;28;20471;-78
2021/08/24 09:36:31;;;;;;;3.43;2.23;;;18.60;54.30;;;;;;5057513;28;20538;-78
2021/08/24 09:38:59;;;;;;;3.70;2.50;;;18.70;53.80;;;;;;5042354;28;20482;-78
2021/08/24 09:41:29;;;;;;;4.50;2.30;;;18.80;54.20;;;;;;5040610;28;20473;-79
2021/08/24 09:43:58;;;;;;;3.93;2.10;;;19.00;52.40;;;;;;5041951;28;20473;-79
2021/08/24 09:46:33;;;;;;;2.67;2.47;;;19.40;51.10;;;;;;5042262;28;20549;-80
2021/08/24 09:49:04;;;;;;;3.30;2.30;;;19.60;50.20;;;;;;5043100;28;20555;-78
2021/08/24 09:51:46;;;;;;;3.33;2.40;;;19.70;48.60;;;;;;5042127;28;20477;-79
2021/08/24 09:54:33;;;;;;;2.47;2.10;;;20.00;48.90;;;;;;5040284;28;20481;-79
2021/08/24 09:57:03;;;;;;;9.50;2.37;;;20.10;49.00;;;;;;5038632;28;21004;-79
2021/08/24 09:59:35;;;;;;;4.10;2.33;;;20.10;49.00;;;;;;5039358;28;20541;-79
2021/08/24 10:02:04;;;;;;;2.43;2.20;;;20.20;49.00;;;;;;5039936;28;20450;-78
2021/08/24 10:04:32;;;;;;;3.70;2.57;;;20.50;46.80;;;;;;5039410;28;20436;-78
2021/08/24 10:07:08;;;;;;;3.20;2.07;;;19.90;46.70;;;;;;5035521;28;20450;-78
2021/08/24 10:09:37;;;;;;;3.50;2.23;;;19.80;47.00;;;;;;5034908;28;20445;-78
2021/08/24 10:12:19;;;;;;;2.97;2.67;;;19.70;48.30;;;;;;5039891;28;20527;-78
2021/08/24 10:14:47;;;;;;;3.43;2.60;;;19.70;48.60;;;;;;5037898;28;20454;-78
2021/08/24 10:17:24;;;;;;;2.30;2.10;;;19.60;48.50;;;;;;5038435;28;20547;-78
2021/08/24 10:19:52;;;;;;;7.67;2.10;;;19.60;48.80;;;;;;5040256;28;20829;-79
2021/08/24 10:22:29;;;;;;;4.57;2.50;;;19.90;48.80;;;;;;5045154;28;20472;-80
2021/08/24 10:24:59;;;;;;;2.77;2.43;;;20.20;48.80;;;;;;5043938;28;20430;-79
2021/08/24 10:27:29;;;;;;;3.20;2.70;;;20.70;47.60;;;;;;5041042;28;20457;-78
2021/08/24 10:29:59;;;;;;;3.77;2.63;;;20.60;45.90;;;;;;5048326;28;20434;-79
2021/08/24 10:32:30;;;;;;;2.37;2.03;;;20.00;48.90;;;;;;5051190;28;20474;-79
2021/08/24 10:35:00;;;;;;;2.30;2.10;;;20.10;49.00;;;;;;5049133;28;20458;-79
2021/08/24 10:37:40;;;;;;;2.27;2.07;;;19.90;48.80;;;;;;5054855;28;20486;-79
2021/08/24 10:40:29;;;;;;;6.23;2.77;;;20.00;48.90;;;;;;5052316;28;20484;-79
2021/08/24 10:43:20;;;;;;;3.97;2.60;;;19.80;48.70;;;;;;5042481;28;20454;-78
2021/08/24 10:46:04;;;;;;;3.00;2.67;;;19.60;48.90;;;;;;5044681;28;20485;-79
2021/08/24 10:48:34;;;;;;;5.77;2.63;;;19.50;49.30;;;;;;5050573;28;20432;-80
2021/08/24 10:51:10;;;;;;;3.30;2.53;;;19.60;49.60;;;;;;5053605;28;20438;-79
2021/08/24 10:53:46;;;;;;;3.60;2.80;;;19.70;50.10;;;;;;5056175;28;20521;-80
2021/08/24 10:56:22;;;;;;;2.27;2.07;;;19.30;50.70;;;;;;5057827;28;20463;-80
2021/08/24 10:58:57;;;;;;;3.23;2.80;;;19.30;50.90;;;;;;5058286;28;20473;-80
2021/08/24 11:01:32;;;;;;;5.03;3.03;;;19.50;50.70;;;;;;5052688;28;20512;-78
2021/08/24 11:04:13;;;;;;;2.87;2.57;;;19.40;51.30;;;;;;5047545;28;20538;-79
2021/08/24 11:06:48;;;;;;;3.10;2.80;;;19.40;51.20;;;;;;5048023;28;20441;-79
2021/08/24 11:09:27;;;;;;;4.70;2.40;;;19.40;52.20;;;;;;5050430;28;20467;-79
2021/08/24 11:12:09;;;;;;;3.10;2.80;;;19.60;51.80;;;;;;5053084;28;20427;-79
2021/08/24 11:14:49;;;;;;;3.00;2.70;;;19.50;51.80;;;;;;5057683;28;20446;-80
2021/08/24 11:17:28;;;;;;;4.20;3.10;;;19.70;51.70;;;;;;5056651;28;20524;-78
2021/08/24 11:20:04;;;;;;;2.77;2.50;;;19.60;52.30;;;;;;5057088;28;20457;-78
2021/08/24 11:22:37;;;;;;;3.10;2.43;;;20.20;50.70;;;;;;5057856;28;20481;-79
2021/08/24 11:25:20;;;;;;;3.53;2.80;;;20.20;49.80;;;;;;5058574;28;20453;-80
2021/08/24 11:27:56;;;;;;;3.30;3.00;;;20.20;50.80;;;;;;5057470;28;20434;-79
2021/08/24 11:30:39;;;;;;;4.00;3.17;;;20.40;49.20;;;;;;5056792;28;20413;-79
2021/08/24 11:33:11;;;;;;;3.33;2.83;;;20.20;49.10;;;;;;5053646;28;20905;-79
2021/08/24 11:35:50;;;;;;;3.30;3.00;;;19.80;50.80;;;;;;5040778;28;20434;-80
2021/08/24 11:38:21;;;;;;;2.90;2.70;;;20.10;50.50;;;;;;5039432;28;20566;-79
2021/08/24 11:40:56;;;;;;;4.10;3.70;;;19.90;50.90;;;;;;5040438;28;20489;-78
2021/08/24 11:43:32;;;;;;;4.50;2.87;;;19.70;51.70;;;;;;5042499;28;20492;-78
2021/08/24 11:46:03;;;;;;;3.17;2.87;;;19.60;52.00;;;;;;5047778;28;20533;-78
2021/08/24 11:48:32;;;;;;;9.33;3.20;;;19.90;51.00;;;;;;5043364;28;20892;-79
2021/08/24 11:51:03;;;;;;;4.17;3.37;;;20.30;50.60;;;;;;5048408;28;20481;-79
2021/08/24 11:53:38;;;;;;;4.10;3.13;;;20.20;51.20;;;;;;5050945;28;20508;-78
2021/08/24 11:56:11;;;;;;;7.57;3.03;;;20.40;49.20;;;;;;5047080;28;20461;-79
2021/08/24 11:58:45;;;;;;;5.63;3.17;;;19.80;51.70;;;;;;5048468;28;20418;-79
2021/08/24 12:01:17;;;;;;;4.83;4.00;;;20.10;50.70;;;;;;5043597;28;20446;-79
2021/08/24 12:03:50;;;;;;;5.67;3.30;;;20.10;50.80;;;;;;5046850;28;20485;-80
2021/08/24 12:06:25;;;;;;;7.30;3.30;;;20.20;50.90;;;;;;5047580;28;20469;-80
2021/08/24 12:08:56;;;;;;;5.23;4.10;;;20.00;50.70;;;;;;5047010;28;20454;-80
2021/08/24 12:11:39;;;;;;;4.57;3.50;;;20.30;49.80;;;;;;5047091;28;20470;-80
2021/08/24 12:14:23;;;;;;;6.83;3.93;;;19.80;51.90;;;;;;5045651;28;20836;-79
2021/08/24 12:16:57;;;;;;;5.30;3.50;;;19.60;51.70;;;;;;5044790;28;20498;-79
2021/08/24 12:19:25;;;;;;;6.60;4.00;;;19.40;52.70;;;;;;5045163;28;20470;-79
2021/08/24 12:21:55;;;;;;;4.30;3.00;;;19.40;53.20;;;;;;5044054;28;20975;-78
2021/08/24 12:25:04;;;;;;;4.93;3.63;;;19.40;53.60;;;;;;5046588;28;20454;-81
2021/08/24 12:28:01;;;;;;;3.27;2.97;;;19.50;53.90;;;;;;5046580;28;20485;-79
2021/08/24 12:30:31;;;;;;;5.40;3.47;;;19.60;53.40;;;;;;5049144;28;20426;-79
2021/08/24 12:33:37;;;;;;;6.60;3.87;;;19.40;53.80;;;;;;5045122;28;20488;-80
2021/08/24 12:36:54;;;;;;;3.50;3.20;;;19.60;53.10;;;;;;5039747;28;20457;-80
2021/08/24 12:39:43;;;;;;;3.43;3.10;;;19.70;52.70;;;;;;5044039;28;20450;-79
2021/08/24 12:42:26;;;;;;;4.20;3.63;;;19.60;53.50;;;;;;5036573;28;20517;-79
2021/08/24 12:45:24;;;;;;;5.27;3.80;;;19.50;53.20;;;;;;5043306;28;20473;-79
2021/08/24 12:48:13;;;;;;;5.17;3.30;;;19.40;54.30;;;;;;5039232;28;20499;-79
2021/08/24 12:50:48;;;;;;;4.10;3.63;;;19.40;53.90;;;;;;5039808;28;20465;-78
2021/08/24 12:53:48;;;;;;;3.60;3.30;;;19.50;54.90;;;;;;5058060;28;20482;-79
2021/08/24 12:56:39;;;;;;;4.67;3.33;;;19.70;53.80;;;;;;5058572;28;20438;-80
2021/08/24 12:59:06;;;;;;;4.60;3.40;;;19.90;53.30;;;;;;5050881;28;20565;-80
2021/08/24 13:01:38;;;;;;;3.40;3.10;;;19.90;52.20;;;;;;5058387;28;20446;-82
2021/08/24 13:04:22;;;;;;;5.17;3.60;;;19.70;52.10;;;;;;5054624;28;20486;-81
2021/08/24 13:07:14;;;;;;;5.60;3.03;;;19.60;51.90;;;;;;5057693;28;20473;-81
2021/08/24 13:09:42;;;;;;;3.93;3.63;;;19.60;52.00;;;;;;5058216;28;20438;-80